sensor_id;sensor_type;location;lat;lon;timestamp;pressure;altitude;pressure_sealevel;temperature;humidity
51178;BME280;37243;49.814;8.652;2022-12-22T00:00:10;99461.53;;;27.62;30.08
51178;BME280;37243;49.814;8.652;2022-12-22T00:02:52;99454.41;;;27.60;30.38
51178;BME280;37243;49.814;8.652;2022-12-22T00:05:32;99450.50;;;27.62;29.71
51178;BME280;37243;49.814;8.652;2022-12-22T00:08:13;99454.41;;;27.60;30.15
51178;BME280;37243;49.814;8.652;2022-12-22T00:10:55;99465.44;;;27.60;30.36
51178;BME280;37243;49.814;8.652;2022-12-22T00:13:40;99454.03;;;27.62;30.34
51178;BME280;37243;49.814;8.652;2022-12-22T00:16:22;99456.03;;;27.62;29.68
51178;BME280;37243;49.814;8.652;2022-12-22T00:19:10;99451.66;;;27.60;30.42
51178;BME280;37243;49.814;8.652;2022-12-22T00:21:52;99446.16;;;27.60;30.45
51178;BME280;37243;49.814;8.652;2022-12-22T00:24:33;99454.41;;;27.60;29.87
51178;BME280;37243;49.814;8.652;2022-12-22T00:27:15;99443.41;;;27.60;29.76
51178;BME280;37243;49.814;8.652;2022-12-22T00:29:59;99439.50;;;27.62;30.06
51178;BME280;37243;49.814;8.652;2022-12-22T00:32:40;99440.63;;;27.60;30.18
51178;BME280;37243;49.814;8.652;2022-12-22T00:35:24;99432.38;;;27.60;30.16
51178;BME280;37243;49.814;8.652;2022-12-22T00:38:11;99439.50;;;27.62;29.74
51178;BME280;37243;49.814;8.652;2022-12-22T00:40:53;99436.75;;;27.62;30.17
51178;BME280;37243;49.814;8.652;2022-12-22T00:43:34;99435.13;;;27.60;29.99
51178;BME280;37243;49.814;8.652;2022-12-22T00:46:17;99435.13;;;27.60;30.13
51178;BME280;37243;49.814;8.652;2022-12-22T00:48:59;99431.22;;;27.62;30.51
51178;BME280;37243;49.814;8.652;2022-12-22T00:51:39;99432.38;;;27.60;30.36
51178;BME280;37243;49.814;8.652;2022-12-22T00:54:21;99429.63;;;27.60;30.04
51178;BME280;37243;49.814;8.652;2022-12-22T00:57:02;99420.19;;;27.62;30.27
51178;BME280;37243;49.814;8.652;2022-12-22T00:59:44;99426.84;;;27.60;30.12
51178;BME280;37243;49.814;8.652;2022-12-22T01:02:27;99421.34;;;27.60;29.97
51178;BME280;37243;49.814;8.652;2022-12-22T01:05:08;99415.84;;;27.60;29.77
51178;BME280;37243;49.814;8.652;2022-12-22T01:07:49;99431.22;;;27.62;29.75
51178;BME280;37243;49.814;8.652;2022-12-22T01:10:30;99415.84;;;27.60;29.86
51178;BME280;37243;49.814;8.652;2022-12-22T01:13:12;99413.09;;;27.60;29.88
51178;BME280;37243;49.814;8.652;2022-12-22T01:15:53;99406.78;;;27.60;29.99
51178;BME280;37243;49.814;8.652;2022-12-22T01:18:36;99404.44;;;27.62;30.13
51178;BME280;37243;49.814;8.652;2022-12-22T01:21:17;99395.41;;;27.62;29.69
51178;BME280;37243;49.814;8.652;2022-12-22T01:23:59;99393.78;;;27.60;30.08
51178;BME280;37243;49.814;8.652;2022-12-22T01:26:39;99395.41;;;27.62;30.13
51178;BME280;37243;49.814;8.652;2022-12-22T01:29:20;99395.41;;;27.62;30.05
51178;BME280;37243;49.814;8.652;2022-12-22T01:32:01;99382.78;;;27.60;30.19
51178;BME280;37243;49.814;8.652;2022-12-22T01:34:44;99371.75;;;27.60;30.49
51178;BME280;37243;49.814;8.652;2022-12-22T01:37:25;99372.56;;;27.61;30.13
51178;BME280;37243;49.814;8.652;2022-12-22T01:40:12;99378.88;;;27.62;29.87
51178;BME280;37243;49.814;8.652;2022-12-22T01:42:53;99370.59;;;27.62;29.81
51178;BME280;37243;49.814;8.652;2022-12-22T01:45:35;99365.88;;;27.62;30.61
51178;BME280;37243;49.814;8.652;2022-12-22T01:48:18;99357.59;;;27.62;30.52
51178;BME280;37243;49.814;8.652;2022-12-22T01:51:05;99353.28;;;27.61;29.97
51178;BME280;37243;49.814;8.652;2022-12-22T01:53:47;99349.72;;;27.60;30.27
51178;BME280;37243;49.814;8.652;2022-12-22T01:56:27;99357.97;;;27.60;30.23
51178;BME280;37243;49.814;8.652;2022-12-22T01:59:08;99346.97;;;27.60;29.97
51178;BME280;37243;49.814;8.652;2022-12-22T02:01:49;99345.81;;;27.62;30.29
51178;BME280;37243;49.814;8.652;2022-12-22T02:04:34;99330.44;;;27.60;30.41
51178;BME280;37243;49.814;8.652;2022-12-22T02:07:32;99331.22;;;27.61;30.43
51178;BME280;37243;49.814;8.652;2022-12-22T02:10:26;99327.66;;;27.60;30.32
51178;BME280;37243;49.814;8.652;2022-12-22T02:13:18;99322.16;;;27.60;30.25
51178;BME280;37243;49.814;8.652;2022-12-22T02:16:07;99326.53;;;27.62;30.21
51178;BME280;37243;49.814;8.652;2022-12-22T02:18:56;99313.91;;;27.60;29.86
51178;BME280;37243;49.814;8.652;2022-12-22T02:21:45;99311.13;;;27.60;30.04
51178;BME280;37243;49.814;8.652;2022-12-22T02:24:37;99300.13;;;27.60;29.85
51178;BME280;37243;49.814;8.652;2022-12-22T02:27:23;99295.41;;;27.61;29.93
51178;BME280;37243;49.814;8.652;2022-12-22T02:30:08;99284.41;;;27.61;30.56
51178;BME280;37243;49.814;8.652;2022-12-22T02:32:49;99285.19;;;27.62;29.85
51178;BME280;37243;49.814;8.652;2022-12-22T02:35:36;99274.16;;;27.62;30.68
51178;BME280;37243;49.814;8.652;2022-12-22T02:38:25;99286.34;;;27.60;30.50
51178;BME280;37243;49.814;8.652;2022-12-22T02:41:14;99290.72;;;27.62;30.43
51178;BME280;37243;49.814;8.652;2022-12-22T02:44:11;99281.25;;;27.63;30.57
51178;BME280;37243;49.814;8.652;2022-12-22T02:46:59;99275.31;;;27.60;30.28
51178;BME280;37243;49.814;8.652;2022-12-22T02:49:48;99261.53;;;27.60;30.61
51178;BME280;37243;49.814;8.652;2022-12-22T02:52:33;99251.31;;;27.61;30.54
51178;BME280;37243;49.814;8.652;2022-12-22T02:55:16;99256.84;;;27.61;29.93
51178;BME280;37243;49.814;8.652;2022-12-22T02:57:58;99256.84;;;27.61;30.23
51178;BME280;37243;49.814;8.652;2022-12-22T03:00:41;99246.63;;;27.62;30.44
51178;BME280;37243;49.814;8.652;2022-12-22T03:03:24;99242.25;;;27.60;30.53
51178;BME280;37243;49.814;8.652;2022-12-22T03:06:05;99243.41;;;27.59;30.51
51178;BME280;37243;49.814;8.652;2022-12-22T03:08:46;99234.81;;;27.61;30.21
51178;BME280;37243;49.814;8.652;2022-12-22T03:11:27;99226.53;;;27.61;30.41
51178;BME280;37243;49.814;8.652;2022-12-22T03:14:07;99230.09;;;27.62;30.62
51178;BME280;37243;49.814;8.652;2022-12-22T03:16:51;99235.16;;;27.59;30.71
51178;BME280;37243;49.814;8.652;2022-12-22T03:19:32;99225.72;;;27.60;30.63
51178;BME280;37243;49.814;8.652;2022-12-22T03:22:13;99235.59;;;27.62;30.23
51178;BME280;37243;49.814;8.652;2022-12-22T03:24:53;99215.50;;;27.61;30.30
51178;BME280;37243;49.814;8.652;2022-12-22T03:27:34;99228.50;;;27.60;30.75
51178;BME280;37243;49.814;8.652;2022-12-22T03:30:04;99223.78;;;27.61;30.33
51178;BME280;37243;49.814;8.652;2022-12-22T03:32:35;99210.81;;;27.62;30.02
51178;BME280;37243;49.814;8.652;2022-12-22T03:35:05;99209.19;;;27.60;30.37
51178;BME280;37243;49.814;8.652;2022-12-22T03:37:34;99201.75;;;27.61;30.68
51178;BME280;37243;49.814;8.652;2022-12-22T03:40:03;99189.91;;;27.60;30.38
51178;BME280;37243;49.814;8.652;2022-12-22T03:42:31;99190.72;;;27.61;29.94
51178;BME280;37243;49.814;8.652;2022-12-22T03:45:12;99200.94;;;27.60;30.55
51178;BME280;37243;49.814;8.652;2022-12-22T03:47:56;99188.75;;;27.62;30.46
51178;BME280;37243;49.814;8.652;2022-12-22T03:50:24;99191.50;;;27.62;30.29
51178;BME280;37243;49.814;8.652;2022-12-22T03:52:53;99182.06;;;27.63;30.60
51178;BME280;37243;49.814;8.652;2022-12-22T03:55:21;99182.06;;;27.63;30.48
51178;BME280;37243;49.814;8.652;2022-12-22T03:57:50;99187.59;;;27.63;30.25
51178;BME280;37243;49.814;8.652;2022-12-22T04:00:19;99188.38;;;27.63;30.12
51178;BME280;37243;49.814;8.652;2022-12-22T04:02:47;99187.59;;;27.63;30.00
51178;BME280;37243;49.814;8.652;2022-12-22T04:05:20;99179.69;;;27.61;30.61
51178;BME280;37243;49.814;8.652;2022-12-22T04:07:48;99172.22;;;27.62;30.54
51178;BME280;37243;49.814;8.652;2022-12-22T04:10:17;99169.47;;;27.62;30.63
51178;BME280;37243;49.814;8.652;2022-12-22T04:12:57;99166.72;;;27.62;30.62
51178;BME280;37243;49.814;8.652;2022-12-22T04:15:27;99174.59;;;27.63;30.48
51178;BME280;37243;49.814;8.652;2022-12-22T04:17:57;99173.81;;;27.63;30.06
51178;BME280;37243;49.814;8.652;2022-12-22T04:20:28;99162.78;;;27.63;30.73
51178;BME280;37243;49.814;8.652;2022-12-22T04:22:57;99154.53;;;27.63;29.94
51178;BME280;37243;49.814;8.652;2022-12-22T04:25:26;99150.63;;;27.64;30.26
51178;BME280;37243;49.814;8.652;2022-12-22T04:27:55;99148.22;;;27.62;30.51
51178;BME280;37243;49.814;8.652;2022-12-22T04:30:23;99131.69;;;27.62;30.53
51178;BME280;37243;49.814;8.652;2022-12-22T04:32:52;99145.91;;;27.64;30.72
51178;BME280;37243;49.814;8.652;2022-12-22T04:35:20;99130.16;;;27.65;30.59
51178;BME280;37243;49.814;8.652;2022-12-22T04:37:51;99134.09;;;27.64;30.32
51178;BME280;37243;49.814;8.652;2022-12-22T04:40:20;99158.06;;;27.63;29.98
51178;BME280;37243;49.814;8.652;2022-12-22T04:42:48;99147.84;;;27.64;30.00
51178;BME280;37243;49.814;8.652;2022-12-22T04:45:17;99132.13;;;27.64;29.98
51178;BME280;37243;49.814;8.652;2022-12-22T04:47:46;99132.94;;;27.65;30.75
51178;BME280;37243;49.814;8.652;2022-12-22T04:50:14;99123.88;;;27.64;30.75
51178;BME280;37243;49.814;8.652;2022-12-22T04:52:44;99121.91;;;27.65;30.33
51178;BME280;37243;49.814;8.652;2022-12-22T04:55:15;99119.94;;;27.65;30.33
51178;BME280;37243;49.814;8.652;2022-12-22T04:57:43;99119.16;;;27.65;30.68
51178;BME280;37243;49.814;8.652;2022-12-22T05:00:13;99119.16;;;27.65;30.04
51178;BME280;37243;49.814;8.652;2022-12-22T05:02:41;99121.53;;;27.66;30.38
51178;BME280;37243;49.814;8.652;2022-12-22T05:05:10;99112.47;;;27.66;30.18
51178;BME280;37243;49.814;8.652;2022-12-22T05:07:38;99114.88;;;27.67;30.02
51178;BME280;37243;49.814;8.652;2022-12-22T05:10:09;99109.34;;;27.67;30.70
51178;BME280;37243;49.814;8.652;2022-12-22T05:12:41;99105.78;;;27.67;30.18
51178;BME280;37243;49.814;8.652;2022-12-22T05:15:22;99102.25;;;27.66;30.20
51178;BME280;37243;49.814;8.652;2022-12-22T05:17:51;99108.56;;;27.67;30.23
51178;BME280;37243;49.814;8.652;2022-12-22T05:20:20;99115.66;;;27.68;30.11
51178;BME280;37243;49.814;8.652;2022-12-22T05:22:50;99115.66;;;27.68;30.74
51178;BME280;37243;49.814;8.652;2022-12-22T05:25:19;99112.91;;;27.68;30.43
51178;BME280;37243;49.814;8.652;2022-12-22T05:27:50;99107.41;;;27.68;30.37
51178;BME280;37243;49.814;8.652;2022-12-22T05:30:19;99108.16;;;27.68;30.38
51178;BME280;37243;49.814;8.652;2022-12-22T05:32:48;99124.69;;;27.68;30.56
51178;BME280;37243;49.814;8.652;2022-12-22T05:35:16;99115.66;;;27.68;30.40
51178;BME280;37243;49.814;8.652;2022-12-22T05:37:45;99119.19;;;27.68;30.51
51178;BME280;37243;49.814;8.652;2022-12-22T05:40:13;99112.09;;;27.67;30.33
51178;BME280;37243;49.814;8.652;2022-12-22T05:42:42;99112.91;;;27.68;30.19
51178;BME280;37243;49.814;8.652;2022-12-22T05:45:14;99115.66;;;27.68;30.68
51178;BME280;37243;49.814;8.652;2022-12-22T05:47:44;99105.41;;;27.68;30.36
51178;BME280;37243;49.814;8.652;2022-12-22T05:50:16;99109.78;;;27.69;30.14
51178;BME280;37243;49.814;8.652;2022-12-22T05:52:45;99108.16;;;27.68;30.38
51178;BME280;37243;49.814;8.652;2022-12-22T05:55:14;99108.97;;;27.69;29.90
51178;BME280;37243;49.814;8.652;2022-12-22T05:57:42;99108.97;;;27.69;30.61
51178;BME280;37243;49.814;8.652;2022-12-22T06:00:15;99107.41;;;27.68;30.55
51178;BME280;37243;49.814;8.652;2022-12-22T06:02:44;99100.72;;;27.69;30.36
51178;BME280;37243;49.814;8.652;2022-12-22T06:05:13;99105.41;;;27.68;30.64
51178;BME280;37243;49.814;8.652;2022-12-22T06:07:45;99107.41;;;27.68;30.04
51178;BME280;37243;49.814;8.652;2022-12-22T06:10:14;99114.88;;;27.67;30.82
51178;BME280;37243;49.814;8.652;2022-12-22T06:12:43;99101.88;;;27.68;30.28
51178;BME280;37243;49.814;8.652;2022-12-22T06:15:15;99092.03;;;27.67;30.76
51178;BME280;37243;49.814;8.652;2022-12-22T06:17:43;99089.69;;;27.69;30.80
51178;BME280;37243;49.814;8.652;2022-12-22T06:20:12;99092.44;;;27.69;30.28
51178;BME280;37243;49.814;8.652;2022-12-22T06:22:41;99086.13;;;27.68;30.14
51178;BME280;37243;49.814;8.652;2022-12-22T06:25:10;99089.69;;;27.69;30.30
51178;BME280;37243;49.814;8.652;2022-12-22T06:27:41;99090.88;;;27.68;30.15
51178;BME280;37243;49.814;8.652;2022-12-22T06:30:11;99086.94;;;27.69;30.37
51178;BME280;37243;49.814;8.652;2022-12-22T06:32:46;99101.88;;;27.68;30.02
51178;BME280;37243;49.814;8.652;2022-12-22T06:35:15;99095.19;;;27.69;30.70
51178;BME280;37243;49.814;8.652;2022-12-22T06:37:43;99086.50;;;27.67;30.50
51178;BME280;37243;49.814;8.652;2022-12-22T06:40:12;99096.38;;;27.68;29.99
51178;BME280;37243;49.814;8.652;2022-12-22T06:42:40;99100.72;;;27.69;29.96
51178;BME280;37243;49.814;8.652;2022-12-22T06:45:21;99114.47;;;27.69;30.08
51178;BME280;37243;49.814;8.652;2022-12-22T06:47:53;99112.53;;;27.69;30.37
51178;BME280;37243;49.814;8.652;2022-12-22T06:50:21;99110.16;;;27.68;30.37
51178;BME280;37243;49.814;8.652;2022-12-22T06:52:50;99115.66;;;27.68;30.66
51178;BME280;37243;49.814;8.652;2022-12-22T06:55:18;99118.41;;;27.68;30.29
51178;BME280;37243;49.814;8.652;2022-12-22T06:57:47;99117.25;;;27.69;30.79
51178;BME280;37243;49.814;8.652;2022-12-22T07:00:16;99111.31;;;27.67;30.32
51178;BME280;37243;49.814;8.652;2022-12-22T07:02:44;99101.88;;;27.68;30.10
51178;BME280;37243;49.814;8.652;2022-12-22T07:05:15;99104.66;;;27.68;30.80
51178;BME280;37243;49.814;8.652;2022-12-22T07:07:44;99090.88;;;27.68;30.40
51178;BME280;37243;49.814;8.652;2022-12-22T07:10:13;99092.81;;;27.67;30.29
51178;BME280;37243;49.814;8.652;2022-12-22T07:12:41;99100.28;;;27.67;30.42
51178;BME280;37243;49.814;8.652;2022-12-22T07:15:10;99100.28;;;27.67;30.43
51178;BME280;37243;49.814;8.652;2022-12-22T07:17:38;99098.69;;;27.66;30.44
51178;BME280;37243;49.814;8.652;2022-12-22T07:20:08;99095.94;;;27.66;30.87
51178;BME280;37243;49.814;8.652;2022-12-22T07:22:39;99109.69;;;27.66;30.83
51178;BME280;37243;49.814;8.652;2022-12-22T07:25:08;99104.19;;;27.66;30.52
51178;BME280;37243;49.814;8.652;2022-12-22T07:27:37;99111.31;;;27.67;30.34
51178;BME280;37243;49.814;8.652;2022-12-22T07:30:07;99114.88;;;27.67;30.43
51178;BME280;37243;49.814;8.652;2022-12-22T07:32:36;99117.97;;;27.66;30.20
51178;BME280;37243;49.814;8.652;2022-12-22T07:35:06;99111.31;;;27.67;30.23
51178;BME280;37243;49.814;8.652;2022-12-22T07:37:35;99121.53;;;27.66;30.86
51178;BME280;37243;49.814;8.652;2022-12-22T07:40:07;99126.25;;;27.66;30.65
51178;BME280;37243;49.814;8.652;2022-12-22T07:42:36;99127.84;;;27.67;30.14
51178;BME280;37243;49.814;8.652;2022-12-22T07:45:15;99124.28;;;27.66;30.50
51178;BME280;37243;49.814;8.652;2022-12-22T07:47:44;99123.13;;;27.67;30.86
51178;BME280;37243;49.814;8.652;2022-12-22T07:50:15;99136.91;;;27.67;30.51
51178;BME280;37243;49.814;8.652;2022-12-22T07:52:53;99122.31;;;27.67;30.65
51178;BME280;37243;49.814;8.652;2022-12-22T07:55:26;99138.84;;;27.67;30.43
51178;BME280;37243;49.814;8.652;2022-12-22T07:57:55;99125.09;;;27.67;30.33
51178;BME280;37243;49.814;8.652;2022-12-22T08:00:23;99137.72;;;27.68;30.60
51178;BME280;37243;49.814;8.652;2022-12-22T08:02:53;99128.63;;;27.67;30.47
51178;BME280;37243;49.814;8.652;2022-12-22T08:05:23;99129.00;;;27.66;30.89
51178;BME280;37243;49.814;8.652;2022-12-22T08:08:04;99136.47;;;27.65;30.46
51178;BME280;37243;49.814;8.652;2022-12-22T08:10:35;99134.16;;;27.67;30.77
51178;BME280;37243;49.814;8.652;2022-12-22T08:13:03;99129.78;;;27.66;30.21
51178;BME280;37243;49.814;8.652;2022-12-22T08:15:31;99127.84;;;27.67;30.31
51178;BME280;37243;49.814;8.652;2022-12-22T08:18:02;99123.94;;;27.68;30.17
51178;BME280;37243;49.814;8.652;2022-12-22T08:20:31;99127.03;;;27.66;30.34
51178;BME280;37243;49.814;8.652;2022-12-22T08:23:00;99127.84;;;27.67;30.61
51178;BME280;37243;49.814;8.652;2022-12-22T08:25:32;99134.16;;;27.67;30.15
51178;BME280;37243;49.814;8.652;2022-12-22T08:28:03;99145.53;;;27.66;30.21
51178;BME280;37243;49.814;8.652;2022-12-22T08:30:32;99129.00;;;27.66;30.23
51178;BME280;37243;49.814;8.652;2022-12-22T08:33:03;99132.53;;;27.66;30.33
51178;BME280;37243;49.814;8.652;2022-12-22T08:35:31;99132.53;;;27.66;30.97
51178;BME280;37243;49.814;8.652;2022-12-22T08:38:00;99138.06;;;27.66;30.61
51178;BME280;37243;49.814;8.652;2022-12-22T08:40:31;99132.53;;;27.66;30.87
51178;BME280;37243;49.814;8.652;2022-12-22T08:43:06;99136.47;;;27.65;30.41
51178;BME280;37243;49.814;8.652;2022-12-22T08:45:36;99133.34;;;27.67;30.61
51178;BME280;37243;49.814;8.652;2022-12-22T08:48:05;99135.69;;;27.65;30.92
51178;BME280;37243;49.814;8.652;2022-12-22T08:50:33;99130.59;;;27.67;30.97
51178;BME280;37243;49.814;8.652;2022-12-22T08:53:02;99135.31;;;27.66;30.55
51178;BME280;37243;49.814;8.652;2022-12-22T08:55:31;99122.31;;;27.67;31.00
51178;BME280;37243;49.814;8.652;2022-12-22T08:57:59;99126.25;;;27.66;30.70
51178;BME280;37243;49.814;8.652;2022-12-22T09:00:30;99124.66;;;27.65;30.95
51178;BME280;37243;49.814;8.652;2022-12-22T09:02:59;99123.47;;;27.66;30.89
51178;BME280;37243;49.814;8.652;2022-12-22T09:05:27;99120.72;;;27.66;30.90
51178;BME280;37243;49.814;8.652;2022-12-22T09:07:56;99121.91;;;27.65;30.97
51178;BME280;37243;49.814;8.652;2022-12-22T09:10:26;99131.75;;;27.66;30.96
51178;BME280;37243;49.814;8.652;2022-12-22T09:12:55;99123.47;;;27.66;30.23
51178;BME280;37243;49.814;8.652;2022-12-22T09:15:24;99115.22;;;27.66;30.18
51178;BME280;37243;49.814;8.652;2022-12-22T09:17:55;99129.00;;;27.66;30.90
51178;BME280;37243;49.814;8.652;2022-12-22T09:20:23;99116.03;;;27.66;30.39
51178;BME280;37243;49.814;8.652;2022-12-22T09:22:51;99125.09;;;27.67;30.97
51178;BME280;37243;49.814;8.652;2022-12-22T09:25:20;99134.16;;;27.67;30.25
51178;BME280;37243;49.814;8.652;2022-12-22T09:27:48;99123.13;;;27.67;30.89
51178;BME280;37243;49.814;8.652;2022-12-22T09:30:17;99123.13;;;27.67;30.12
51178;BME280;37243;49.814;8.652;2022-12-22T09:32:45;99119.56;;;27.67;30.81
51178;BME280;37243;49.814;8.652;2022-12-22T09:35:16;99134.16;;;27.67;30.41
51178;BME280;37243;49.814;8.652;2022-12-22T09:37:45;99123.94;;;27.68;30.69
51178;BME280;37243;49.814;8.652;2022-12-22T09:40:13;99137.72;;;27.68;30.32
51178;BME280;37243;49.814;8.652;2022-12-22T09:42:45;99139.66;;;27.67;30.70
51178;BME280;37243;49.814;8.652;2022-12-22T09:45:16;99136.91;;;27.67;30.74
51178;BME280;37243;49.814;8.652;2022-12-22T09:47:46;99148.34;;;27.69;31.02
51178;BME280;37243;49.814;8.652;2022-12-22T09:50:22;99155.00;;;27.68;30.69
51178;BME280;37243;49.814;8.652;2022-12-22T09:52:53;99151.50;;;27.68;31.08
51178;BME280;37243;49.814;8.652;2022-12-22T09:55:36;99153.06;;;27.69;30.51
51178;BME280;37243;49.814;8.652;2022-12-22T09:58:14;99150.31;;;27.69;31.08
51178;BME280;37243;49.814;8.652;2022-12-22T10:00:47;99158.56;;;27.69;30.55
51178;BME280;37243;49.814;8.652;2022-12-22T10:03:28;99162.94;;;27.70;30.63
51178;BME280;37243;49.814;8.652;2022-12-22T10:06:09;99171.19;;;27.70;30.65
51178;BME280;37243;49.814;8.652;2022-12-22T10:08:39;99169.59;;;27.69;30.75
51178;BME280;37243;49.814;8.652;2022-12-22T10:11:12;99165.69;;;27.70;30.77
51178;BME280;37243;49.814;8.652;2022-12-22T10:13:42;99171.19;;;27.70;30.35
51178;BME280;37243;49.814;8.652;2022-12-22T10:16:19;99177.50;;;27.70;30.57
51178;BME280;37243;49.814;8.652;2022-12-22T10:18:57;99188.53;;;27.70;31.11
51178;BME280;37243;49.814;8.652;2022-12-22T10:21:28;99185.78;;;27.70;30.83
51178;BME280;37243;49.814;8.652;2022-12-22T10:23:56;99178.28;;;27.71;30.58
51178;BME280;37243;49.814;8.652;2022-12-22T10:26:28;99187.72;;;27.70;31.03
51178;BME280;37243;49.814;8.652;2022-12-22T10:29:02;99190.91;;;27.72;30.37
51178;BME280;37243;49.814;8.652;2022-12-22T10:31:33;99192.84;;;27.71;31.01
51178;BME280;37243;49.814;8.652;2022-12-22T10:34:10;99200.31;;;27.71;30.92
51178;BME280;37243;49.814;8.652;2022-12-22T10:36:46;99206.63;;;27.71;30.99
51178;BME280;37243;49.814;8.652;2022-12-22T10:39:20;99205.84;;;27.71;31.21
51178;BME280;37243;49.814;8.652;2022-12-22T10:41:50;99214.09;;;27.71;31.11
51178;BME280;37243;49.814;8.652;2022-12-22T10:44:25;99212.94;;;27.72;30.87
51178;BME280;37243;49.814;8.652;2022-12-22T10:46:57;99216.50;;;27.72;30.80
51178;BME280;37243;49.814;8.652;2022-12-22T10:49:28;99229.50;;;27.72;30.84
51178;BME280;37243;49.814;8.652;2022-12-22T10:52:12;99219.91;;;27.66;30.50
51178;BME280;37243;49.814;8.652;2022-12-22T10:54:42;99237.19;;;27.63;30.94
51178;BME280;37243;49.814;8.652;2022-12-22T10:57:26;99234.28;;;27.55;30.76
51178;BME280;37243;49.814;8.652;2022-12-22T10:59:57;99246.38;;;27.51;31.39
51178;BME280;37243;49.814;8.652;2022-12-22T11:02:32;99248.63;;;27.45;31.35
51178;BME280;37243;49.814;8.652;2022-12-22T11:05:05;99257.97;;;27.41;31.33
51178;BME280;37243;49.814;8.652;2022-12-22T11:07:38;99268.91;;;27.37;31.47
51178;BME280;37243;49.814;8.652;2022-12-22T11:10:15;99264.09;;;27.34;31.07
51178;BME280;37243;49.814;8.652;2022-12-22T11:12:56;99264.41;;;27.29;31.54
51178;BME280;37243;49.814;8.652;2022-12-22T11:15:32;99267.06;;;27.26;31.23
51178;BME280;37243;49.814;8.652;2022-12-22T11:18:11;99272.50;;;27.22;31.76
51178;BME280;37243;49.814;8.652;2022-12-22T11:20:53;99289.72;;;27.19;31.58
51178;BME280;37243;49.814;8.652;2022-12-22T11:23:32;99290.44;;;27.16;31.47
51178;BME280;37243;49.814;8.652;2022-12-22T11:26:09;99298.28;;;27.14;31.44
51178;BME280;37243;49.814;8.652;2022-12-22T11:28:55;99307.25;;;27.11;31.96
51178;BME280;37243;49.814;8.652;2022-12-22T11:31:45;99320.94;;;27.08;31.99
51178;BME280;37243;49.814;8.652;2022-12-22T11:34:25;99320.94;;;27.08;31.57
51178;BME280;37243;49.814;8.652;2022-12-22T11:37:06;99318.88;;;27.04;31.99
51178;BME280;37243;49.814;8.652;2022-12-22T11:39:47;99329.47;;;27.02;31.99
51178;BME280;37243;49.814;8.652;2022-12-22T11:42:40;99331.31;;;26.98;31.74
51178;BME280;37243;49.814;8.652;2022-12-22T11:45:23;99333.31;;;26.98;32.07
51178;BME280;37243;49.814;8.652;2022-12-22T11:48:06;99332.84;;;26.96;32.51
51178;BME280;37243;49.814;8.652;2022-12-22T11:50:41;99339.84;;;26.93;31.83
51178;BME280;37243;49.814;8.652;2022-12-22T11:53:32;99345.72;;;26.92;31.83
51178;BME280;37243;49.814;8.652;2022-12-22T11:56:18;99364.53;;;26.90;32.16
51178;BME280;37243;49.814;8.652;2022-12-22T11:59:06;99359.75;;;26.87;32.21
51178;BME280;37243;49.814;8.652;2022-12-22T12:01:55;99364.47;;;26.86;31.81
51178;BME280;37243;49.814;8.652;2022-12-22T12:05:10;99371.50;;;26.84;32.59
51178;BME280;37243;49.814;8.652;2022-12-22T12:07:45;99370.69;;;26.83;32.57
51178;BME280;37243;49.814;8.652;2022-12-22T12:10:20;99375.38;;;26.83;32.00
51178;BME280;37243;49.814;8.652;2022-12-22T12:13:00;99385.94;;;26.81;32.65
51178;BME280;37243;49.814;8.652;2022-12-22T12:15:34;99383.97;;;26.81;32.51
51178;BME280;37243;49.814;8.652;2022-12-22T12:18:23;99389.84;;;26.80;32.68
51178;BME280;37243;49.814;8.652;2022-12-22T12:21:09;99387.09;;;26.80;32.59
51178;BME280;37243;49.814;8.652;2022-12-22T12:24:03;99394.88;;;26.78;32.70
51178;BME280;37243;49.814;8.652;2022-12-22T12:26:43;99402.34;;;26.77;32.05
51178;BME280;37243;49.814;8.652;2022-12-22T12:29:19;99404.28;;;26.77;32.44
51178;BME280;37243;49.814;8.652;2022-12-22T12:31:54;99409.78;;;26.77;32.01
51178;BME280;37243;49.814;8.652;2022-12-22T12:34:26;99414.47;;;26.76;32.24
51178;BME280;37243;49.814;8.652;2022-12-22T12:37:01;99415.66;;;26.75;32.44
51178;BME280;37243;49.814;8.652;2022-12-22T12:39:35;99419.19;;;26.76;32.43
51178;BME280;37243;49.814;8.652;2022-12-22T12:42:19;99423.09;;;26.75;32.26
51178;BME280;37243;49.814;8.652;2022-12-22T12:44:52;99425.84;;;26.75;32.82
51178;BME280;37243;49.814;8.652;2022-12-22T12:47:24;99436.50;;;26.76;32.09
51178;BME280;37243;49.814;8.652;2022-12-22T12:50:04;99427.00;;;26.74;32.51
51178;BME280;37243;49.814;8.652;2022-12-22T12:56:05;99439.94;;;26.73;32.13
51178;BME280;37243;49.814;8.652;2022-12-22T12:58:51;99441.91;;;26.73;32.50
51178;BME280;37243;49.814;8.652;2022-12-22T13:01:56;99455.22;;;26.71;32.64
51178;BME280;37243;49.814;8.652;2022-12-22T13:10:36;99457.16;;;26.70;32.45
51178;BME280;37243;49.814;8.652;2022-12-22T13:13:07;99476.41;;;26.70;32.96
51178;BME280;37243;49.814;8.652;2022-12-22T13:15:40;99475.63;;;26.70;32.30
51178;BME280;37243;49.814;8.652;2022-12-22T13:18:39;99481.47;;;26.68;32.33
51178;BME280;37243;49.814;8.652;2022-12-22T13:21:14;99483.09;;;26.69;32.64
51178;BME280;37243;49.814;8.652;2022-12-22T13:23:56;99485.03;;;26.69;32.42
51178;BME280;37243;49.814;8.652;2022-12-22T13:26:26;99487.31;;;26.67;32.86
51178;BME280;37243;49.814;8.652;2022-12-22T13:28:57;99488.94;;;26.68;32.19
51178;BME280;37243;49.814;8.652;2022-12-22T13:31:30;99496.03;;;26.69;32.94
51178;BME280;37243;49.814;8.652;2022-12-22T13:34:10;99489.75;;;26.68;33.07
51178;BME280;37243;49.814;8.652;2022-12-22T13:36:47;99498.31;;;26.67;32.29
51178;BME280;37243;49.814;8.652;2022-12-22T13:39:16;99503.81;;;26.67;32.77
51178;BME280;37243;49.814;8.652;2022-12-22T13:41:47;99509.34;;;26.67;32.52
51178;BME280;37243;49.814;8.652;2022-12-22T13:44:19;99503.06;;;26.66;32.26
51178;BME280;37243;49.814;8.652;2022-12-22T13:46:51;99506.59;;;26.67;32.43
51178;BME280;37243;49.814;8.652;2022-12-22T13:49:25;99512.88;;;26.67;32.81
51178;BME280;37243;49.814;8.652;2022-12-22T13:51:54;99511.31;;;26.66;32.87